sensor_id;sensor_type;location;lat;lon;timestamp;temperature;humidity
10459;DHT22;5277;48.722;8.736;2023-05-10T00:00:57;15.50;99.90
10459;DHT22;5277;48.722;8.736;2023-05-10T00:03:23;15.40;99.90
10459;DHT22;5277;48.722;8.736;2023-05-10T00:05:51;15.50;99.90
10459;DHT22;5277;48.722;8.736;2023-05-10T00:08:16;15.30;99.90
10459;DHT22;5277;48.722;8.736;2023-05-10T00:10:42;15.20;99.90
10459;DHT22;5277;48.722;8.736;2023-05-10T00:13:08;15.20;99.90
10459;DHT22;5277;48.722;8.736;2023-05-10T00:15:33;15.10;99.90
10459;DHT22;5277;48.722;8.736;2023-05-10T00:18:00;15.10;99.90
10459;DHT22;5277;48.722;8.736;2023-05-10T00:20:25;15.10;99.90
10459;DHT22;5277;48.722;8.736;2023-05-10T00:22:51;15.00;99.90
10459;DHT22;5277;48.722;8.736;2023-05-10T00:25:17;15.10;99.90
10459;DHT22;5277;48.722;8.736;2023-05-10T00:27:42;15.00;99.90
10459;DHT22;5277;48.722;8.736;2023-05-10T00:30:09;15.00;99.90
10459;DHT22;5277;48.722;8.736;2023-05-10T00:32:37;14.90;99.90
10459;DHT22;5277;48.722;8.736;2023-05-10T00:35:05;14.80;99.90
10459;DHT22;5277;48.722;8.736;2023-05-10T00:37:33;14.80;99.90
10459;DHT22;5277;48.722;8.736;2023-05-10T00:39:59;14.80;99.90
10459;DHT22;5277;48.722;8.736;2023-05-10T00:42:25;14.80;99.90
10459;DHT22;5277;48.722;8.736;2023-05-10T00:44:50;14.80;99.90
10459;DHT22;5277;48.722;8.736;2023-05-10T00:47:16;14.80;99.90
10459;DHT22;5277;48.722;8.736;2023-05-10T00:49:42;14.80;99.90
10459;DHT22;5277;48.722;8.736;2023-05-10T00:52:09;14.90;99.90
10459;DHT22;5277;48.722;8.736;2023-05-10T00:54:35;14.90;99.90
10459;DHT22;5277;48.722;8.736;2023-05-10T00:57:01;14.90;99.90
10459;DHT22;5277;48.722;8.736;2023-05-10T00:59:28;14.90;99.90
10459;DHT22;5277;48.722;8.736;2023-05-10T01:01:57;14.80;99.90
10459;DHT22;5277;48.722;8.736;2023-05-10T01:04:26;14.80;99.90
10459;DHT22;5277;48.722;8.736;2023-05-10T01:06:55;14.70;99.90
10459;DHT22;5277;48.722;8.736;2023-05-10T01:09:24;14.70;99.90
10459;DHT22;5277;48.722;8.736;2023-05-10T01:11:53;14.70;99.90
10459;DHT22;5277;48.722;8.736;2023-05-10T01:14:20;14.70;99.90
10459;DHT22;5277;48.722;8.736;2023-05-10T01:16:54;14.70;99.90
10459;DHT22;5277;48.722;8.736;2023-05-10T01:19:28;14.60;99.90
10459;DHT22;5277;48.722;8.736;2023-05-10T01:22:36;14.70;99.90
10459;DHT22;5277;48.722;8.736;2023-05-10T01:33:07;14.50;99.90
10459;DHT22;5277;48.722;8.736;2023-05-10T01:38:50;14.50;99.90
10459;DHT22;5277;48.722;8.736;2023-05-10T01:41:10;14.50;99.90
10459;DHT22;5277;48.722;8.736;2023-05-10T01:44:04;14.50;99.90
10459;DHT22;5277;48.722;8.736;2023-05-10T01:46:37;14.50;99.90
10459;DHT22;5277;48.722;8.736;2023-05-10T01:49:08;14.50;99.90
10459;DHT22;5277;48.722;8.736;2023-05-10T01:51:54;14.50;99.90
10459;DHT22;5277;48.722;8.736;2023-05-10T01:54:24;14.50;99.90
10459;DHT22;5277;48.722;8.736;2023-05-10T01:56:58;14.50;99.90
10459;DHT22;5277;48.722;8.736;2023-05-10T01:59:29;14.60;99.90
10459;DHT22;5277;48.722;8.736;2023-05-10T02:01:59;14.50;99.90
10459;DHT22;5277;48.722;8.736;2023-05-10T02:04:27;14.50;99.90
10459;DHT22;5277;48.722;8.736;2023-05-10T02:06:54;14.50;99.90
10459;DHT22;5277;48.722;8.736;2023-05-10T02:09:21;14.40;99.90
10459;DHT22;5277;48.722;8.736;2023-05-10T02:11:49;14.30;99.90
10459;DHT22;5277;48.722;8.736;2023-05-10T02:14:16;14.30;99.90
10459;DHT22;5277;48.722;8.736;2023-05-10T02:16:43;14.20;99.90
10459;DHT22;5277;48.722;8.736;2023-05-10T02:19:12;14.20;99.90
10459;DHT22;5277;48.722;8.736;2023-05-10T02:21:39;14.20;99.90
10459;DHT22;5277;48.722;8.736;2023-05-10T02:24:06;14.20;99.90
10459;DHT22;5277;48.722;8.736;2023-05-10T02:26:34;14.20;99.90
10459;DHT22;5277;48.722;8.736;2023-05-10T02:29:02;14.20;99.90
10459;DHT22;5277;48.722;8.736;2023-05-10T02:31:30;14.20;99.90
10459;DHT22;5277;48.722;8.736;2023-05-10T02:33:58;14.10;99.90
10459;DHT22;5277;48.722;8.736;2023-05-10T02:36:25;14.20;99.90
10459;DHT22;5277;48.722;8.736;2023-05-10T02:38:53;14.20;99.90
10459;DHT22;5277;48.722;8.736;2023-05-10T02:41:20;14.10;99.90
10459;DHT22;5277;48.722;8.736;2023-05-10T02:43:50;14.10;99.90
10459;DHT22;5277;48.722;8.736;2023-05-10T02:46:17;14.20;99.90
10459;DHT22;5277;48.722;8.736;2023-05-10T02:48:43;14.20;99.90
10459;DHT22;5277;48.722;8.736;2023-05-10T02:51:09;14.20;99.90
10459;DHT22;5277;48.722;8.736;2023-05-10T02:53:40;14.20;99.90
10459;DHT22;5277;48.722;8.736;2023-05-10T02:56:13;14.20;99.90
10459;DHT22;5277;48.722;8.736;2023-05-10T02:58:40;14.10;99.90
10459;DHT22;5277;48.722;8.736;2023-05-10T03:01:06;14.10;99.90
10459;DHT22;5277;48.722;8.736;2023-05-10T03:03:34;14.10;99.90
10459;DHT22;5277;48.722;8.736;2023-05-10T03:05:59;14.10;99.90
10459;DHT22;5277;48.722;8.736;2023-05-10T03:08:25;14.10;99.90
10459;DHT22;5277;48.722;8.736;2023-05-10T03:14:07;14.10;99.90
10459;DHT22;5277;48.722;8.736;2023-05-10T03:17:19;14.10;99.90
10459;DHT22;5277;48.722;8.736;2023-05-10T03:19:58;14.10;99.90
10459;DHT22;5277;48.722;8.736;2023-05-10T03:25:05;14.10;99.90
10459;DHT22;5277;48.722;8.736;2023-05-10T03:27:32;14.10;99.90
10459;DHT22;5277;48.722;8.736;2023-05-10T03:29:58;14.00;99.90
10459;DHT22;5277;48.722;8.736;2023-05-10T03:32:25;14.10;99.90
10459;DHT22;5277;48.722;8.736;2023-05-10T03:34:52;14.10;99.90
10459;DHT22;5277;48.722;8.736;2023-05-10T03:37:18;14.10;99.90
10459;DHT22;5277;48.722;8.736;2023-05-10T03:39:43;14.20;99.90
10459;DHT22;5277;48.722;8.736;2023-05-10T03:42:09;14.10;99.90
10459;DHT22;5277;48.722;8.736;2023-05-10T03:44:38;14.10;99.90
10459;DHT22;5277;48.722;8.736;2023-05-10T03:47:04;14.10;99.90
10459;DHT22;5277;48.722;8.736;2023-05-10T03:49:29;14.00;99.90
10459;DHT22;5277;48.722;8.736;2023-05-10T03:51:55;14.10;99.90
10459;DHT22;5277;48.722;8.736;2023-05-10T03:54:21;14.10;99.90
10459;DHT22;5277;48.722;8.736;2023-05-10T03:56:46;14.10;99.90
10459;DHT22;5277;48.722;8.736;2023-05-10T03:59:13;14.10;99.90
10459;DHT22;5277;48.722;8.736;2023-05-10T04:01:39;14.10;99.90
10459;DHT22;5277;48.722;8.736;2023-05-10T04:04:07;14.10;99.90
10459;DHT22;5277;48.722;8.736;2023-05-10T04:06:33;14.10;99.90
10459;DHT22;5277;48.722;8.736;2023-05-10T04:08:59;14.20;99.90
10459;DHT22;5277;48.722;8.736;2023-05-10T04:11:25;14.20;99.90
10459;DHT22;5277;48.722;8.736;2023-05-10T04:13:51;14.10;99.90
10459;DHT22;5277;48.722;8.736;2023-05-10T04:16:17;14.10;99.90
10459;DHT22;5277;48.722;8.736;2023-05-10T04:18:42;14.10;99.90
10459;DHT22;5277;48.722;8.736;2023-05-10T04:21:14;14.20;99.90
10459;DHT22;5277;48.722;8.736;2023-05-10T04:23:40;14.10;99.90
10459;DHT22;5277;48.722;8.736;2023-05-10T04:26:09;14.20;99.90
10459;DHT22;5277;48.722;8.736;2023-05-10T04:28:34;14.20;99.90
10459;DHT22;5277;48.722;8.736;2023-05-10T04:31:08;14.10;99.90
10459;DHT22;5277;48.722;8.736;2023-05-10T04:33:40;14.10;99.90
10459;DHT22;5277;48.722;8.736;2023-05-10T04:36:05;14.10;99.90
10459;DHT22;5277;48.722;8.736;2023-05-10T04:38:31;14.10;99.90
10459;DHT22;5277;48.722;8.736;2023-05-10T04:41:04;14.10;99.90
10459;DHT22;5277;48.722;8.736;2023-05-10T04:43:33;14.00;99.90
10459;DHT22;5277;48.722;8.736;2023-05-10T04:45:58;14.10;99.90
10459;DHT22;5277;48.722;8.736;2023-05-10T04:48:24;14.10;99.90
10459;DHT22;5277;48.722;8.736;2023-05-10T04:50:58;14.10;99.90
10459;DHT22;5277;48.722;8.736;2023-05-10T04:53:24;14.20;99.90
10459;DHT22;5277;48.722;8.736;2023-05-10T04:55:50;14.20;99.90
10459;DHT22;5277;48.722;8.736;2023-05-10T04:58:15;14.30;99.90
10459;DHT22;5277;48.722;8.736;2023-05-10T05:00:41;14.30;99.90
10459;DHT22;5277;48.722;8.736;2023-05-10T05:03:07;14.20;99.90
10459;DHT22;5277;48.722;8.736;2023-05-10T05:05:33;14.20;99.90
10459;DHT22;5277;48.722;8.736;2023-05-10T05:07:59;14.10;99.90
10459;DHT22;5277;48.722;8.736;2023-05-10T05:10:24;14.20;99.90
10459;DHT22;5277;48.722;8.736;2023-05-10T05:12:50;14.20;99.90
10459;DHT22;5277;48.722;8.736;2023-05-10T05:15:16;14.20;99.90
10459;DHT22;5277;48.722;8.736;2023-05-10T05:17:42;14.20;99.90
10459;DHT22;5277;48.722;8.736;2023-05-10T05:20:08;14.20;99.90
10459;DHT22;5277;48.722;8.736;2023-05-10T05:22:36;14.30;99.90
10459;DHT22;5277;48.722;8.736;2023-05-10T05:25:01;14.40;99.90
10459;DHT22;5277;48.722;8.736;2023-05-10T05:27:28;14.40;99.90
10459;DHT22;5277;48.722;8.736;2023-05-10T05:29:55;14.40;99.90
10459;DHT22;5277;48.722;8.736;2023-05-10T05:32:21;14.40;99.90
10459;DHT22;5277;48.722;8.736;2023-05-10T05:34:50;14.40;99.90
10459;DHT22;5277;48.722;8.736;2023-05-10T05:37:18;14.40;99.90
10459;DHT22;5277;48.722;8.736;2023-05-10T05:39:44;14.50;99.90
10459;DHT22;5277;48.722;8.736;2023-05-10T05:42:11;14.40;99.90
10459;DHT22;5277;48.722;8.736;2023-05-10T05:44:39;14.40;99.90
10459;DHT22;5277;48.722;8.736;2023-05-10T05:47:06;14.30;99.90
10459;DHT22;5277;48.722;8.736;2023-05-10T05:49:32;14.40;99.90
10459;DHT22;5277;48.722;8.736;2023-05-10T05:52:02;14.40;99.90
10459;DHT22;5277;48.722;8.736;2023-05-10T05:54:31;14.50;99.90
10459;DHT22;5277;48.722;8.736;2023-05-10T05:56:57;14.50;99.90
10459;DHT22;5277;48.722;8.736;2023-05-10T05:59:24;14.40;99.90
10459;DHT22;5277;48.722;8.736;2023-05-10T06:01:51;14.40;99.90
10459;DHT22;5277;48.722;8.736;2023-05-10T06:04:19;14.30;99.90
10459;DHT22;5277;48.722;8.736;2023-05-10T06:06:45;14.40;99.90
10459;DHT22;5277;48.722;8.736;2023-05-10T06:09:11;14.40;99.90
10459;DHT22;5277;48.722;8.736;2023-05-10T06:11:37;14.40;99.90
10459;DHT22;5277;48.722;8.736;2023-05-10T06:14:04;14.60;99.90
10459;DHT22;5277;48.722;8.736;2023-05-10T06:16:30;14.60;99.90
10459;DHT22;5277;48.722;8.736;2023-05-10T06:18:56;14.60;99.90
10459;DHT22;5277;48.722;8.736;2023-05-10T06:21:22;14.60;99.90
10459;DHT22;5277;48.722;8.736;2023-05-10T06:23:48;14.70;99.90
10459;DHT22;5277;48.722;8.736;2023-05-10T06:26:14;14.80;99.90
10459;DHT22;5277;48.722;8.736;2023-05-10T06:28:40;14.80;99.90
10459;DHT22;5277;48.722;8.736;2023-05-10T06:31:06;14.90;99.90
10459;DHT22;5277;48.722;8.736;2023-05-10T06:33:32;15.00;99.90
10459;DHT22;5277;48.722;8.736;2023-05-10T06:35:58;15.00;99.90
10459;DHT22;5277;48.722;8.736;2023-05-10T06:38:24;15.10;99.90
10459;DHT22;5277;48.722;8.736;2023-05-10T06:40:50;15.20;99.90
10459;DHT22;5277;48.722;8.736;2023-05-10T06:43:16;15.20;99.90
10459;DHT22;5277;48.722;8.736;2023-05-10T06:45:41;15.30;99.90
10459;DHT22;5277;48.722;8.736;2023-05-10T06:48:07;15.30;99.90
10459;DHT22;5277;48.722;8.736;2023-05-10T06:50:33;15.40;99.90
10459;DHT22;5277;48.722;8.736;2023-05-10T06:52:59;15.40;99.90
10459;DHT22;5277;48.722;8.736;2023-05-10T06:55:26;15.40;99.90
10459;DHT22;5277;48.722;8.736;2023-05-10T06:57:51;15.40;99.90
10459;DHT22;5277;48.722;8.736;2023-05-10T07:00:18;15.50;99.90
10459;DHT22;5277;48.722;8.736;2023-05-10T07:02:44;15.60;99.90
10459;DHT22;5277;48.722;8.736;2023-05-10T07:05:09;15.60;99.90
10459;DHT22;5277;48.722;8.736;2023-05-10T07:07:35;15.70;99.90
10459;DHT22;5277;48.722;8.736;2023-05-10T07:10:01;15.80;99.90
10459;DHT22;5277;48.722;8.736;2023-05-10T07:12:27;15.90;99.90
10459;DHT22;5277;48.722;8.736;2023-05-10T07:14:52;15.90;99.90
10459;DHT22;5277;48.722;8.736;2023-05-10T07:17:18;15.90;99.90
10459;DHT22;5277;48.722;8.736;2023-05-10T07:19:44;15.90;99.90
10459;DHT22;5277;48.722;8.736;2023-05-10T07:22:09;15.90;99.90
10459;DHT22;5277;48.722;8.736;2023-05-10T07:24:35;15.90;99.90
10459;DHT22;5277;48.722;8.736;2023-05-10T07:27:01;15.90;99.90
10459;DHT22;5277;48.722;8.736;2023-05-10T07:29:27;15.90;99.90
10459;DHT22;5277;48.722;8.736;2023-05-10T07:31:52;16.00;99.90
10459;DHT22;5277;48.722;8.736;2023-05-10T07:34:18;16.10;99.90
10459;DHT22;5277;48.722;8.736;2023-05-10T07:36:44;16.10;99.90
10459;DHT22;5277;48.722;8.736;2023-05-10T07:39:09;16.20;99.90
10459;DHT22;5277;48.722;8.736;2023-05-10T07:41:35;16.10;99.90
10459;DHT22;5277;48.722;8.736;2023-05-10T07:44:03;16.30;99.90
10459;DHT22;5277;48.722;8.736;2023-05-10T07:46:29;16.30;99.90
10459;DHT22;5277;48.722;8.736;2023-05-10T07:48:54;16.50;99.90
10459;DHT22;5277;48.722;8.736;2023-05-10T07:51:20;16.50;99.90
10459;DHT22;5277;48.722;8.736;2023-05-10T07:53:46;16.60;99.90
10459;DHT22;5277;48.722;8.736;2023-05-10T07:56:32;16.60;99.90
10459;DHT22;5277;48.722;8.736;2023-05-10T07:58:58;16.80;99.90
10459;DHT22;5277;48.722;8.736;2023-05-10T08:01:24;16.80;99.90
10459;DHT22;5277;48.722;8.736;2023-05-10T08:03:51;16.80;99.90
10459;DHT22;5277;48.722;8.736;2023-05-10T08:06:19;16.80;99.90
10459;DHT22;5277;48.722;8.736;2023-05-10T08:08:48;16.60;99.90
10459;DHT22;5277;48.722;8.736;2023-05-10T08:11:18;16.60;99.90
10459;DHT22;5277;48.722;8.736;2023-05-10T08:13:45;16.60;99.90
10459;DHT22;5277;48.722;8.736;2023-05-10T08:16:10;16.70;99.90
10459;DHT22;5277;48.722;8.736;2023-05-10T08:18:37;16.70;99.90
10459;DHT22;5277;48.722;8.736;2023-05-10T08:21:03;16.60;99.90
10459;DHT22;5277;48.722;8.736;2023-05-10T08:23:28;16.50;99.90
10459;DHT22;5277;48.722;8.736;2023-05-10T08:25:54;16.70;99.90
10459;DHT22;5277;48.722;8.736;2023-05-10T08:28:19;16.60;99.90
10459;DHT22;5277;48.722;8.736;2023-05-10T08:30:45;16.70;99.90
10459;DHT22;5277;48.722;8.736;2023-05-10T08:33:10;16.80;99.90
10459;DHT22;5277;48.722;8.736;2023-05-10T08:35:36;17.00;99.90
10459;DHT22;5277;48.722;8.736;2023-05-10T08:38:02;17.10;99.90
10459;DHT22;5277;48.722;8.736;2023-05-10T08:40:28;17.10;99.90
10459;DHT22;5277;48.722;8.736;2023-05-10T08:43:08;17.20;99.90
10459;DHT22;5277;48.722;8.736;2023-05-10T08:45:41;17.20;99.90
10459;DHT22;5277;48.722;8.736;2023-05-10T08:48:08;17.20;99.90
10459;DHT22;5277;48.722;8.736;2023-05-10T08:50:39;17.00;99.90
10459;DHT22;5277;48.722;8.736;2023-05-10T08:53:15;17.10;99.90
10459;DHT22;5277;48.722;8.736;2023-05-10T08:55:42;16.80;99.90
10459;DHT22;5277;48.722;8.736;2023-05-10T08:58:09;17.00;99.90
10459;DHT22;5277;48.722;8.736;2023-05-10T09:00:35;17.10;99.90
10459;DHT22;5277;48.722;8.736;2023-05-10T09:03:03;17.10;99.90
10459;DHT22;5277;48.722;8.736;2023-05-10T09:05:29;17.10;99.90
10459;DHT22;5277;48.722;8.736;2023-05-10T09:07:54;17.20;99.90
10459;DHT22;5277;48.722;8.736;2023-05-10T09:10:20;17.30;99.90
10459;DHT22;5277;48.722;8.736;2023-05-10T09:12:48;17.50;99.90
10459;DHT22;5277;48.722;8.736;2023-05-10T09:15:17;17.60;99.90
10459;DHT22;5277;48.722;8.736;2023-05-10T09:17:45;17.60;99.90
10459;DHT22;5277;48.722;8.736;2023-05-10T09:20:10;17.70;99.90
10459;DHT22;5277;48.722;8.736;2023-05-10T09:22:36;17.60;99.90
10459;DHT22;5277;48.722;8.736;2023-05-10T09:25:10;17.70;99.90
10459;DHT22;5277;48.722;8.736;2023-05-10T09:27:38;17.70;99.90
10459;DHT22;5277;48.722;8.736;2023-05-10T09:30:04;17.70;99.90
10459;DHT22;5277;48.722;8.736;2023-05-10T09:32:41;17.70;99.90
10459;DHT22;5277;48.722;8.736;2023-05-10T09:35:14;17.60;99.50
10459;DHT22;5277;48.722;8.736;2023-05-10T09:37:41;17.60;99.90
10459;DHT22;5277;48.722;8.736;2023-05-10T09:40:08;17.60;99.90
10459;DHT22;5277;48.722;8.736;2023-05-10T09:42:36;17.80;99.90
10459;DHT22;5277;48.722;8.736;2023-05-10T09:45:05;17.60;98.90
10459;DHT22;5277;48.722;8.736;2023-05-10T09:47:33;17.70;99.50
10459;DHT22;5277;48.722;8.736;2023-05-10T09:50:00;17.90;99.90
10459;DHT22;5277;48.722;8.736;2023-05-10T09:52:50;18.20;99.90
10459;DHT22;5277;48.722;8.736;2023-05-10T09:55:20;18.60;99.40
10459;DHT22;5277;48.722;8.736;2023-05-10T09:57:46;18.80;98.90
10459;DHT22;5277;48.722;8.736;2023-05-10T10:00:18;19.20;99.10
10459;DHT22;5277;48.722;8.736;2023-05-10T10:02:55;19.30;98.60
10459;DHT22;5277;48.722;8.736;2023-05-10T10:05:20;19.40;98.00
10459;DHT22;5277;48.722;8.736;2023-05-10T10:07:46;19.40;97.10
10459;DHT22;5277;48.722;8.736;2023-05-10T10:10:14;19.10;97.90
10459;DHT22;5277;48.722;8.736;2023-05-10T10:12:41;18.70;97.70
10459;DHT22;5277;48.722;8.736;2023-05-10T10:15:08;18.40;98.40
10459;DHT22;5277;48.722;8.736;2023-05-10T10:17:36;18.10;98.10
10459;DHT22;5277;48.722;8.736;2023-05-10T10:20:03;17.60;97.10
10459;DHT22;5277;48.722;8.736;2023-05-10T10:22:29;17.20;98.50
10459;DHT22;5277;48.722;8.736;2023-05-10T10:24:55;16.90;98.20
10459;DHT22;5277;48.722;8.736;2023-05-10T10:27:28;16.60;99.50
10459;DHT22;5277;48.722;8.736;2023-05-10T10:30:37;16.50;99.70
10459;DHT22;5277;48.722;8.736;2023-05-10T10:36:08;16.20;99.90
10459;DHT22;5277;48.722;8.736;2023-05-10T10:49:50;16.10;99.90
10459;DHT22;5277;48.722;8.736;2023-05-10T10:52:29;16.10;99.90
10459;DHT22;5277;48.722;8.736;2023-05-10T10:57:52;16.20;99.90
10459;DHT22;5277;48.722;8.736;2023-05-10T11:03:04;16.20;99.90
10459;DHT22;5277;48.722;8.736;2023-05-10T11:08:09;16.40;99.90
10459;DHT22;5277;48.722;8.736;2023-05-10T11:10:35;16.40;99.90
10459;DHT22;5277;48.722;8.736;2023-05-10T11:13:02;16.40;99.80
10459;DHT22;5277;48.722;8.736;2023-05-10T11:17:56;16.50;99.90
10459;DHT22;5277;48.722;8.736;2023-05-10T11:20:22;16.60;99.90
10459;DHT22;5277;48.722;8.736;2023-05-10T11:22:53;16.60;99.90
10459;DHT22;5277;48.722;8.736;2023-05-10T11:25:19;16.60;99.90
10459;DHT22;5277;48.722;8.736;2023-05-10T11:27:47;16.70;99.70
10459;DHT22;5277;48.722;8.736;2023-05-10T11:30:14;16.80;99.70
10459;DHT22;5277;48.722;8.736;2023-05-10T11:32:40;16.80;98.80
10459;DHT22;5277;48.722;8.736;2023-05-10T11:35:10;16.70;99.50
10459;DHT22;5277;48.722;8.736;2023-05-10T11:37:36;16.80;99.20
10459;DHT22;5277;48.722;8.736;2023-05-10T11:40:02;16.90;99.80
10459;DHT22;5277;48.722;8.736;2023-05-10T11:42:28;17.00;99.60
10459;DHT22;5277;48.722;8.736;2023-05-10T11:44:54;17.00;99.30
10459;DHT22;5277;48.722;8.736;2023-05-10T11:47:20;17.10;99.70
10459;DHT22;5277;48.722;8.736;2023-05-10T11:49:48;17.20;99.60
10459;DHT22;5277;48.722;8.736;2023-05-10T11:52:13;17.20;98.80
10459;DHT22;5277;48.722;8.736;2023-05-10T11:54:51;17.40;98.40
10459;DHT22;5277;48.722;8.736;2023-05-10T11:57:18;17.40;98.00
10459;DHT22;5277;48.722;8.736;2023-05-10T11:59:45;17.40;98.50
10459;DHT22;5277;48.722;8.736;2023-05-10T12:02:13;17.60;97.70
10459;DHT22;5277;48.722;8.736;2023-05-10T12:04:38;17.60;97.30
10459;DHT22;5277;48.722;8.736;2023-05-10T12:07:04;17.60;97.10
10459;DHT22;5277;48.722;8.736;2023-05-10T12:09:30;17.60;97.40
10459;DHT22;5277;48.722;8.736;2023-05-10T12:11:56;17.50;97.50
10459;DHT22;5277;48.722;8.736;2023-05-10T12:14:22;17.50;98.10
10459;DHT22;5277;48.722;8.736;2023-05-10T12:16:49;17.60;98.10
10459;DHT22;5277;48.722;8.736;2023-05-10T12:19:18;17.70;96.80
10459;DHT22;5277;48.722;8.736;2023-05-10T12:21:45;17.60;96.40
10459;DHT22;5277;48.722;8.736;2023-05-10T12:24:10;17.50;95.60
10459;DHT22;5277;48.722;8.736;2023-05-10T12:26:39;17.40;95.20
10459;DHT22;5277;48.722;8.736;2023-05-10T12:31:59;17.40;97.10
10459;DHT22;5277;48.722;8.736;2023-05-10T12:34:32;17.60;96.90
10459;DHT22;5277;48.722;8.736;2023-05-10T12:36:59;17.60;97.00
10459;DHT22;5277;48.722;8.736;2023-05-10T12:39:25;17.70;96.60
10459;DHT22;5277;48.722;8.736;2023-05-10T12:41:52;17.70;97.20
10459;DHT22;5277;48.722;8.736;2023-05-10T12:44:18;17.60;96.30
10459;DHT22;5277;48.722;8.736;2023-05-10T12:46:44;17.50;96.00
10459;DHT22;5277;48.722;8.736;2023-05-10T12:49:13;17.50;96.70
10459;DHT22;5277;48.722;8.736;2023-05-10T12:51:39;17.40;95.70
10459;DHT22;5277;48.722;8.736;2023-05-10T12:54:04;17.40;97.30
10459;DHT22;5277;48.722;8.736;2023-05-10T12:56:33;17.50;96.70
10459;DHT22;5277;48.722;8.736;2023-05-10T12:59:04;17.70;95.80
10459;DHT22;5277;48.722;8.736;2023-05-10T13:01:33;17.80;95.70
10459;DHT22;5277;48.722;8.736;2023-05-10T13:03:59;17.80;95.90
10459;DHT22;5277;48.722;8.736;2023-05-10T13:06:25;17.90;95.90
10459;DHT22;5277;48.722;8.736;2023-05-10T13:08:51;18.00;95.20
10459;DHT22;5277;48.722;8.736;2023-05-10T13:11:17;18.00;95.40
10459;DHT22;5277;48.722;8.736;2023-05-10T13:13:45;18.00;95.40
10459;DHT22;5277;48.722;8.736;2023-05-10T13:16:11;18.10;94.40
10459;DHT22;5277;48.722;8.736;2023-05-10T13:18:37;18.10;94.70
10459;DHT22;5277;48.722;8.736;2023-05-10T13:21:02;18.20;94.90
10459;DHT22;5277;48.722;8.736;2023-05-10T13:23:30;18.20;94.40
10459;DHT22;5277;48.722;8.736;2023-05-10T13:25:56;18.10;94.90
10459;DHT22;5277;48.722;8.736;2023-05-10T13:28:22;18.20;94.80
10459;DHT22;5277;48.722;8.736;2023-05-10T13:30:48;17.90;93.30
10459;DHT22;5277;48.722;8.736;2023-05-10T13:33:14;18.10;94.70
10459;DHT22;5277;48.722;8.736;2023-05-10T13:35:39;18.10;94.30
10459;DHT22;5277;48.722;8.736;2023-05-10T13:38:05;18.20;94.90
10459;DHT22;5277;48.722;8.736;2023-05-10T13:40:33;18.20;94.20
10459;DHT22;5277;48.722;8.736;2023-05-10T13:42:59;18.30;94.20
10459;DHT22;5277;48.722;8.736;2023-05-10T13:45:25;18.40;93.90
10459;DHT22;5277;48.722;8.736;2023-05-10T13:47:51;18.50;94.00
10459;DHT22;5277;48.722;8.736;2023-05-10T13:50:17;18.50;94.90
10459;DHT22;5277;48.722;8.736;2023-05-10T13:52:43;18.60;94.30
10459;DHT22;5277;48.722;8.736;2023-05-10T13:55:09;18.40;92.90
10459;DHT22;5277;48.722;8.736;2023-05-10T13:57:37;18.30;94.10
10459;DHT22;5277;48.722;8.736;2023-05-10T14:00:03;18.40;95.00
10459;DHT22;5277;48.722;8.736;2023-05-10T14:02:30;18.40;93.90
10459;DHT22;5277;48.722;8.736;2023-05-10T14:04:56;18.40;94.70
10459;DHT22;5277;48.722;8.736;2023-05-10T14:07:22;18.40;93.60
10459;DHT22;5277;48.722;8.736;2023-05-10T14:09:48;18.20;92.70
10459;DHT22;5277;48.722;8.736;2023-05-10T14:12:14;18.20;93.10
10459;DHT22;5277;48.722;8.736;2023-05-10T14:14:40;17.80;92.80
10459;DHT22;5277;48.722;8.736;2023-05-10T14:17:06;17.80;94.40
10459;DHT22;5277;48.722;8.736;2023-05-10T14:19:32;17.80;94.20
10459;DHT22;5277;48.722;8.736;2023-05-10T14:21:59;17.80;94.40
10459;DHT22;5277;48.722;8.736;2023-05-10T14:24:25;17.80;94.20
10459;DHT22;5277;48.722;8.736;2023-05-10T14:26:51;17.80;94.20
10459;DHT22;5277;48.722;8.736;2023-05-10T14:29:19;17.80;95.30
10459;DHT22;5277;48.722;8.736;2023-05-10T14:31:45;17.80;94.70
10459;DHT22;5277;48.722;8.736;2023-05-10T14:34:11;17.80;95.20
10459;DHT22;5277;48.722;8.736;2023-05-10T14:36:37;17.80;94.70
10459;DHT22;5277;48.722;8.736;2023-05-10T14:39:02;17.90;94.80
10459;DHT22;5277;48.722;8.736;2023-05-10T14:41:28;17.90;95.40
10459;DHT22;5277;48.722;8.736;2023-05-10T14:43:55;17.70;94.10
10459;DHT22;5277;48.722;8.736;2023-05-10T14:46:21;17.70;94.50
10459;DHT22;5277;48.722;8.736;2023-05-10T14:48:47;17.80;94.50
10459;DHT22;5277;48.722;8.736;2023-05-10T14:51:12;17.80;94.70
10459;DHT22;5277;48.722;8.736;2023-05-10T14:53:38;17.90;95.20
10459;DHT22;5277;48.722;8.736;2023-05-10T14:56:04;18.00;94.90
10459;DHT22;5277;48.722;8.736;2023-05-10T14:58:30;17.90;94.70
10459;DHT22;5277;48.722;8.736;2023-05-10T15:00:56;17.90;94.60
10459;DHT22;5277;48.722;8.736;2023-05-10T15:03:22;17.90;96.10
10459;DHT22;5277;48.722;8.736;2023-05-10T15:05:48;17.90;95.20
10459;DHT22;5277;48.722;8.736;2023-05-10T15:08:14;17.90;95.80
10459;DHT22;5277;48.722;8.736;2023-05-10T15:10:40;18.00;95.30
10459;DHT22;5277;48.722;8.736;2023-05-10T15:13:06;18.00;95.50
10459;DHT22;5277;48.722;8.736;2023-05-10T15:15:32;18.00;96.90
10459;DHT22;5277;48.722;8.736;2023-05-10T15:17:58;18.00;95.20
10459;DHT22;5277;48.722;8.736;2023-05-10T15:20:24;18.00;96.70
10459;DHT22;5277;48.722;8.736;2023-05-10T15:22:50;18.00;96.30
10459;DHT22;5277;48.722;8.736;2023-05-10T15:25:16;18.00;94.70
10459;DHT22;5277;48.722;8.736;2023-05-10T15:27:41;18.10;95.30
10459;DHT22;5277;48.722;8.736;2023-05-10T15:30:11;18.00;95.80
10459;DHT22;5277;48.722;8.736;2023-05-10T15:32:37;18.00;95.00
10459;DHT22;5277;48.722;8.736;2023-05-10T15:35:06;17.90;93.30
10459;DHT22;5277;48.722;8.736;2023-05-10T15:37:32;17.80;94.70
10459;DHT22;5277;48.722;8.736;2023-05-10T15:39:58;17.80;94.20
10459;DHT22;5277;48.722;8.736;2023-05-10T15:42:29;17.80;96.60
10459;DHT22;5277;48.722;8.736;2023-05-10T15:44:58;17.80;96.40
10459;DHT22;5277;48.722;8.736;2023-05-10T15:47:25;17.70;94.70
10459;DHT22;5277;48.722;8.736;2023-05-10T15:49:51;17.60;94.60
10459;DHT22;5277;48.722;8.736;2023-05-10T15:52:17;17.40;94.90
10459;DHT22;5277;48.722;8.736;2023-05-10T15:54:43;17.40;96.00
10459;DHT22;5277;48.722;8.736;2023-05-10T15:57:09;17.30;96.90
10459;DHT22;5277;48.722;8.736;2023-05-10T15:59:34;17.20;97.30
10459;DHT22;5277;48.722;8.736;2023-05-10T16:02:00;17.10;95.60
10459;DHT22;5277;48.722;8.736;2023-05-10T16:04:30;17.10;95.20
10459;DHT22;5277;48.722;8.736;2023-05-10T16:06:58;17.10;94.80
10459;DHT22;5277;48.722;8.736;2023-05-10T16:09:24;17.10;94.30
10459;DHT22;5277;48.722;8.736;2023-05-10T16:11:49;17.10;94.70
10459;DHT22;5277;48.722;8.736;2023-05-10T16:14:17;17.00;95.70
10459;DHT22;5277;48.722;8.736;2023-05-10T16:16:48;16.90;95.80
10459;DHT22;5277;48.722;8.736;2023-05-10T16:19:14;16.90;95.20
10459;DHT22;5277;48.722;8.736;2023-05-10T16:21:40;16.90;96.00
10459;DHT22;5277;48.722;8.736;2023-05-10T16:24:05;17.00;95.40
10459;DHT22;5277;48.722;8.736;2023-05-10T16:26:31;17.00;95.30
10459;DHT22;5277;48.722;8.736;2023-05-10T16:28:58;16.90;94.20
10459;DHT22;5277;48.722;8.736;2023-05-10T16:31:25;16.90;94.70